Time;durP1;ratioP1;P1;durP2;ratioP2;P2;SDS_P1;SDS_P2;PMS_P1;PMS_P2;Temp;Humidity;BMP_temperature;BMP_pressure;BME280_temperature;BME280_humidity;BME280_pressure;Samples;Min_cycle;Max_cycle;Signal;HPM_P1;HPM_P2
2023/08/05 00:00:39;;;;;;;9.52;3.50;;;;;;;17.16;100.00;100065.25;5074120;28;20028;-60
2023/08/05 00:03:04;;;;;;;8.60;4.13;;;;;;;17.21;100.00;100081.97;5070357;28;20438;-60
2023/08/05 00:05:30;;;;;;;8.00;3.22;;;;;;;17.20;100.00;100090.16;5081424;28;20044;-60
2023/08/05 00:07:55;;;;;;;7.45;2.70;;;;;;;17.17;100.00;100093.84;5091133;28;20089;-60
2023/08/05 00:10:21;;;;;;;7.53;2.97;;;;;;;17.16;100.00;100100.19;5089920;28;20055;-61
2023/08/05 00:12:46;;;;;;;7.30;2.55;;;;;;;17.10;100.00;100095.16;5073533;28;20028;-61
2023/08/05 00:15:12;;;;;;;5.97;2.63;;;;;;;17.10;100.00;100098.72;5071028;28;20094;-60
2023/08/05 00:17:37;;;;;;;5.45;2.70;;;;;;;17.05;100.00;100092.75;5075702;28;20135;-60
2023/08/05 00:20:03;;;;;;;5.63;2.78;;;;;;;17.07;100.00;100100.72;5087903;28;20024;-61
2023/08/05 00:22:28;;;;;;;5.20;2.92;;;;;;;17.08;100.00;100091.72;5091523;28;20043;-61
2023/08/05 00:24:54;;;;;;;6.63;2.70;;;;;;;17.15;100.00;100093.06;5091298;28;20028;-61
2023/08/05 00:27:19;;;;;;;9.10;2.70;;;;;;;17.15;100.00;100103.81;5089600;28;20533;-60
2023/08/05 00:29:46;;;;;;;4.38;2.20;;;;;;;17.19;100.00;100100.03;5090862;28;20093;-60
2023/08/05 00:32:11;;;;;;;7.90;3.25;;;;;;;17.19;100.00;100110.78;5091180;28;20039;-60
2023/08/05 00:34:37;;;;;;;11.55;3.45;;;;;;;17.16;100.00;100105.56;5091462;28;20032;-60
2023/08/05 00:37:03;;;;;;;5.80;2.30;;;;;;;17.16;100.00;100100.19;5079936;28;20383;-60
2023/08/05 00:39:28;;;;;;;6.88;3.00;;;;;;;17.18;100.00;100094.72;5080844;28;20089;-60
2023/08/05 00:41:53;;;;;;;6.28;2.95;;;;;;;17.16;100.00;100099.31;5090636;28;20375;-60
2023/08/05 00:44:19;;;;;;;5.53;2.67;;;;;;;17.16;100.00;100105.56;5089044;28;20023;-60
2023/08/05 00:46:45;;;;;;;6.82;2.97;;;;;;;17.14;100.00;100104.78;5080787;28;20402;-60
2023/08/05 00:49:11;;;;;;;7.13;2.75;;;;;;;17.14;100.00;100102.09;5089024;28;20043;-61
2023/08/05 00:51:38;;;;;;;7.95;3.35;;;;;;;17.15;100.00;100103.81;5088497;28;20752;-61
2023/08/05 00:54:04;;;;;;;8.27;3.05;;;;;;;17.06;100.00;100088.25;5076595;28;20028;-61
2023/08/05 00:56:29;;;;;;;7.25;2.78;;;;;;;17.07;100.00;100093.53;5088288;28;20038;-61
2023/08/05 00:58:55;;;;;;;6.13;3.08;;;;;;;17.04;100.00;100087.47;5084200;28;20506;-61
2023/08/05 01:01:21;;;;;;;6.75;3.35;;;;;;;17.03;100.00;100081.22;5070966;28;20025;-60
2023/08/05 01:03:46;;;;;;;4.93;2.53;;;;;;;17.06;100.00;100085.56;5078271;28;20112;-60
2023/08/05 01:06:14;;;;;;;5.75;3.33;;;;;;;17.01;100.00;100084.97;5075988;28;20044;-61
2023/08/05 01:08:40;;;;;;;7.60;3.17;;;;;;;16.97;100.00;100078.00;5066441;28;20451;-61
2023/08/05 01:11:06;;;;;;;10.20;2.90;;;;;;;16.91;100.00;100075.69;5070087;28;20108;-61
2023/08/05 01:13:32;;;;;;;7.72;3.78;;;;;;;16.90;100.00;100082.03;5070070;28;20107;-61
2023/08/05 01:15:57;;;;;;;6.57;3.42;;;;;;;16.88;100.00;100067.81;5069343;28;20055;-61
2023/08/05 01:18:24;;;;;;;7.75;3.63;;;;;;;16.88;100.00;100067.81;5061923;28;20033;-61
2023/08/05 01:20:53;;;;;;;8.20;3.65;;;;;;;16.91;100.00;100067.63;5057421;28;20032;-61
2023/08/05 01:23:26;;;;;;;7.03;3.30;;;;;;;16.88;100.00;100065.13;5069717;28;20034;-61
2023/08/05 01:25:52;;;;;;;6.45;3.40;;;;;;;16.87;100.00;100066.94;5065927;28;20476;-61
2023/08/05 01:28:18;;;;;;;8.45;3.95;;;;;;;16.80;100.00;100064.69;5049762;28;20075;-61
2023/08/05 01:30:45;;;;;;;7.50;4.13;;;;;;;16.76;100.00;100071.19;5049850;28;20033;-61
2023/08/05 01:33:12;;;;;;;9.60;4.55;;;;;;;16.74;100.00;100067.72;5061624;28;20024;-61
2023/08/05 01:35:38;;;;;;;8.57;4.30;;;;;;;16.69;100.00;100077.84;5068881;28;20048;-61
2023/08/05 01:38:03;;;;;;;9.10;4.70;;;;;;;16.61;100.00;100074.72;5068312;28;20024;-61
2023/08/05 01:40:29;;;;;;;8.98;3.60;;;;;;;16.56;100.00;100074.13;5062320;28;20265;-61
2023/08/05 01:42:58;;;;;;;8.27;4.20;;;;;;;16.53;100.00;100071.63;5058508;28;20039;-61
2023/08/05 01:45:24;;;;;;;7.00;4.35;;;;;;;16.49;100.00;100070.91;5066839;28;20025;-60
2023/08/05 01:47:49;;;;;;;8.10;3.60;;;;;;;16.48;100.00;100073.69;5066931;28;20024;-61
2023/08/05 01:50:15;;;;;;;6.18;3.67;;;;;;;16.44;100.00;100074.78;5055124;28;20384;-61
2023/08/05 01:52:40;;;;;;;7.75;3.67;;;;;;;16.40;100.00;100075.91;5047307;28;20166;-61
2023/08/05 01:55:06;;;;;;;6.85;2.58;;;;;;;16.34;100.00;100079.78;5051349;28;20484;-61
2023/08/05 01:57:31;;;;;;;5.88;2.97;;;;;;;16.35;100.00;100075.28;5068882;28;20097;-61
2023/08/05 01:59:57;;;;;;;9.10;3.10;;;;;;;16.34;100.00;100070.88;5066623;28;20077;-62
2023/08/05 02:02:22;;;;;;;5.65;3.00;;;;;;;16.32;100.00;100075.47;5067759;28;20103;-61
2023/08/05 02:04:47;;;;;;;7.70;3.13;;;;;;;16.29;100.00;100072.94;5071009;28;20028;-61
2023/08/05 02:07:13;;;;;;;6.68;2.58;;;;;;;16.26;100.00;100065.91;5085158;28;20084;-61
2023/08/05 02:09:38;;;;;;;8.63;3.50;;;;;;;16.24;100.00;100065.16;5089609;28;20047;-61
2023/08/05 02:12:04;;;;;;;5.38;2.70;;;;;;;16.24;100.00;100065.16;5083272;28;20396;-60
2023/08/05 02:14:29;;;;;;;8.45;3.00;;;;;;;16.23;100.00;100054.47;5068900;28;20089;-61
2023/08/05 02:16:55;;;;;;;12.20;3.35;;;;;;;16.24;100.00;100058.91;5068728;28;20064;-62
2023/08/05 02:19:20;;;;;;;6.03;2.85;;;;;;;16.23;100.00;100065.22;5088066;28;20463;-61
2023/08/05 02:21:46;;;;;;;5.90;3.00;;;;;;;16.21;100.00;100054.56;5079981;28;20548;-61
2023/08/05 02:24:11;;;;;;;8.10;3.50;;;;;;;16.20;100.00;100057.34;5085210;28;20028;-61
2023/08/05 02:26:37;;;;;;;5.07;2.97;;;;;;;16.18;100.00;100053.84;5087774;28;20020;-61
2023/08/05 02:29:03;;;;;;;14.07;3.60;;;;;;;16.17;100.00;100049.47;5079023;28;20030;-61
2023/08/05 02:31:28;;;;;;;5.32;3.05;;;;;;;16.14;100.00;100045.13;5087660;28;20387;-61
2023/08/05 02:33:53;;;;;;;6.32;3.13;;;;;;;16.13;100.00;100034.50;5083713;28;20020;-61
2023/08/05 02:36:19;;;;;;;5.65;2.97;;;;;;;16.15;100.00;100038.81;5087566;28;20032;-61
2023/08/05 02:38:44;;;;;;;7.32;3.33;;;;;;;16.14;100.00;100034.41;5087331;28;20441;-61
2023/08/05 02:41:10;;;;;;;7.53;2.78;;;;;;;16.12;100.00;100032.75;5082287;28;20024;-61
2023/08/05 02:43:35;;;;;;;6.30;3.25;;;;;;;16.11;100.00;100025.66;5087632;28;20069;-61
2023/08/05 02:46:01;;;;;;;7.13;3.35;;;;;;;16.06;100.00;100028.59;5085764;28;20032;-61
2023/08/05 02:48:27;;;;;;;6.10;3.42;;;;;;;16.02;100.00;100031.50;5079575;28;20067;-61
2023/08/05 02:50:54;;;;;;;6.20;3.38;;;;;;;15.98;100.00;100029.97;5087734;28;20036;-61
2023/08/05 02:53:20;;;;;;;6.25;3.40;;;;;;;15.93;100.00;100032.03;5072335;28;20735;-61
2023/08/05 02:55:46;;;;;;;7.40;3.30;;;;;;;15.88;100.00;100051.03;5081914;28;20036;-61
2023/08/05 02:58:12;;;;;;;6.50;3.35;;;;;;;15.84;100.00;100049.47;5075682;28;20043;-61
2023/08/05 03:00:37;;;;;;;6.22;3.03;;;;;;;15.74;100.00;100051.78;5068664;28;20074;-61
2023/08/05 03:03:03;;;;;;;6.93;3.70;;;;;;;15.70;100.00;100052.00;5068355;28;20028;-61
2023/08/05 03:05:29;;;;;;;6.85;3.08;;;;;;;15.67;100.00;100063.78;5067988;28;20048;-61
2023/08/05 03:07:55;;;;;;;6.05;2.75;;;;;;;15.64;100.00;100061.25;5075510;28;20043;-61
2023/08/05 03:10:20;;;;;;;6.88;3.50;;;;;;;15.61;100.00;100074.81;5068309;28;20064;-61
2023/08/05 03:12:45;;;;;;;6.78;3.20;;;;;;;15.63;100.00;100072.91;5073878;28;20034;-61
2023/08/05 03:15:11;;;;;;;5.85;2.75;;;;;;;15.63;100.00;100067.53;5068423;28;20395;-61
2023/08/05 03:17:36;;;;;;;6.93;3.10;;;;;;;15.61;100.00;100061.41;5072449;28;20089;-61
2023/08/05 03:20:04;;;;;;;6.68;3.15;;;;;;;15.62;100.00;100071.19;5074452;28;20037;-61
2023/08/05 03:22:30;;;;;;;13.32;5.05;;;;;;;15.67;100.00;100073.63;5067300;28;20710;-61
2023/08/05 03:24:55;;;;;;;6.38;3.50;;;;;;;15.72;100.00;100076.94;5071650;28;20032;-61
2023/08/05 03:27:20;;;;;;;72.25;9.52;;;;;;;15.70;100.00;100068.97;5071052;28;20033;-62
2023/08/05 03:29:46;;;;;;;7.57;3.58;;;;;;;15.68;100.00;100062.81;5070971;28;20029;-61
2023/08/05 03:32:12;;;;;;;7.15;3.35;;;;;;;15.67;100.00;100069.13;5073572;28;20059;-62
2023/08/05 03:34:37;;;;;;;7.05;3.33;;;;;;;15.67;100.00;100063.78;5070266;28;20415;-61
2023/08/05 03:37:03;;;;;;;9.38;3.65;;;;;;;15.65;100.00;100057.63;5082523;28;20641;-61
2023/08/05 03:39:29;;;;;;;7.15;3.33;;;;;;;15.62;100.00;100065.81;5070798;28;20016;-61
2023/08/05 03:41:54;;;;;;;6.88;3.42;;;;;;;15.59;100.00;100065.13;5082436;28;20514;-61
2023/08/05 03:44:19;;;;;;;6.45;3.25;;;;;;;15.59;100.00;100068.66;5071043;28;20086;-61
2023/08/05 03:46:45;;;;;;;6.65;3.25;;;;;;;15.53;100.00;100060.94;5079650;28;20523;-61
2023/08/05 03:49:10;;;;;;;7.03;3.80;;;;;;;15.48;100.00;100060.31;5091257;28;20031;-61
2023/08/05 03:51:36;;;;;;;7.65;3.95;;;;;;;15.42;100.00;100057.94;5092046;28;20468;-61
2023/08/05 03:54:01;;;;;;;6.32;3.45;;;;;;;15.46;100.00;100064.91;5091592;28;20036;-61
2023/08/05 03:56:27;;;;;;;8.27;3.95;;;;;;;15.45;100.00;100067.66;5087913;28;20085;-61
2023/08/05 03:58:56;;;;;;;6.75;4.03;;;;;;;15.41;100.00;100061.59;5091841;28;20031;-61
2023/08/05 04:01:22;;;;;;;7.53;4.03;;;;;;;15.39;100.00;100068.81;5083855;28;20028;-62
2023/08/05 04:03:51;;;;;;;9.30;3.90;;;;;;;15.36;100.00;100068.97;5071884;28;20086;-61
2023/08/05 04:06:20;;;;;;;8.15;3.65;;;;;;;15.35;100.00;100083.28;5080086;28;20164;-61
2023/08/05 04:08:46;;;;;;;9.40;3.70;;;;;;;15.28;100.00;100075.66;5091334;28;20055;-62
2023/08/05 04:11:12;;;;;;;8.57;3.70;;;;;;;15.32;100.00;100086.13;5078403;28;20047;-61
2023/08/05 04:13:39;;;;;;;6.90;3.50;;;;;;;15.35;100.00;100098.53;5070662;28;20488;-61
2023/08/05 04:16:04;;;;;;;8.40;3.67;;;;;;;15.33;100.00;100105.75;5072420;28;20094;-62
2023/08/05 04:18:31;;;;;;;7.93;3.22;;;;;;;15.30;100.00;100111.28;5079875;28;20809;-62
2023/08/05 04:20:57;;;;;;;12.65;4.43;;;;;;;15.28;100.00;100116.72;5087910;28;20031;-62
2023/08/05 04:23:25;;;;;;;8.20;3.63;;;;;;;15.28;100.00;100118.53;5083227;28;20467;-61
2023/08/05 04:25:50;;;;;;;6.57;3.10;;;;;;;15.29;100.00;100126.47;5087953;28;20024;-61
2023/08/05 04:28:15;;;;;;;7.95;3.63;;;;;;;15.27;100.00;100128.38;5081773;28;20050;-62
2023/08/05 04:30:41;;;;;;;9.52;4.07;;;;;;;15.31;100.00;100135.31;5069110;28;20043;-62
2023/08/05 04:33:08;;;;;;;11.27;3.90;;;;;;;15.33;100.00;100138.81;5069474;28;20460;-62
2023/08/05 04:35:34;;;;;;;7.45;4.32;;;;;;;15.33;100.00;100135.25;5086868;28;20564;-62
2023/08/05 04:37:59;;;;;;;8.60;3.17;;;;;;;15.38;100.00;100144.81;5089044;28;20177;-62
2023/08/05 04:40:25;;;;;;;7.25;3.42;;;;;;;15.42;100.00;100143.72;5076561;28;20024;-62
2023/08/05 04:42:50;;;;;;;7.20;3.83;;;;;;;15.45;100.00;100143.56;5069523;28;20032;-61
2023/08/05 04:45:16;;;;;;;8.70;4.25;;;;;;;15.43;100.00;100142.78;5072624;28;20021;-62
2023/08/05 04:47:41;;;;;;;9.85;4.10;;;;;;;15.44;100.00;100144.53;5075723;28;20042;-61
2023/08/05 04:50:07;;;;;;;8.02;4.28;;;;;;;15.49;100.00;100139.78;5084695;28;20021;-62
2023/08/05 04:52:32;;;;;;;11.60;5.22;;;;;;;15.48;100.00;100146.13;5085478;28;20028;-62
2023/08/05 04:55:07;;;;;;;13.88;4.82;;;;;;;15.49;100.00;100128.19;5090352;28;20114;-62
2023/08/05 04:57:33;;;;;;;12.23;4.22;;;;;;;15.56;100.00;100135.88;5090750;28;20035;-62
2023/08/05 04:59:58;;;;;;;9.25;4.55;;;;;;;15.61;100.00;100141.00;5086472;28;20036;-61
2023/08/05 05:02:23;;;;;;;9.30;4.60;;;;;;;15.63;100.00;100131.91;5082906;28;20103;-62
2023/08/05 05:04:49;;;;;;;7.68;4.45;;;;;;;15.65;100.00;100121.97;5088526;28;20027;-62
2023/08/05 05:07:14;;;;;;;8.95;4.22;;;;;;;15.71;100.00;100118.13;5068952;28;20020;-61
2023/08/05 05:09:40;;;;;;;7.40;3.65;;;;;;;15.76;100.00;100118.75;5078026;28;20480;-62
2023/08/05 05:12:05;;;;;;;8.50;3.80;;;;;;;15.77;100.00;100129.38;5069655;28;20127;-62
2023/08/05 05:14:33;;;;;;;9.68;5.05;;;;;;;15.79;100.00;100124.81;5069515;28;20384;-62
2023/08/05 05:16:58;;;;;;;8.73;4.25;;;;;;;15.82;100.00;100124.66;5058899;28;20140;-62
2023/08/05 05:19:24;;;;;;;8.40;4.30;;;;;;;15.90;100.00;100126.94;5050594;28;20100;-62
2023/08/05 05:21:49;;;;;;;10.98;3.85;;;;;;;16.01;100.00;100121.88;5065649;28;20455;-61
2023/08/05 05:24:15;;;;;;;7.28;3.90;;;;;;;16.11;100.00;100124.94;5060746;28;20028;-61
2023/08/05 05:26:40;;;;;;;9.75;4.45;;;;;;;16.19;100.00;100126.28;5068290;28;20024;-62
2023/08/05 05:29:05;;;;;;;8.50;3.92;;;;;;;16.26;100.00;100127.66;5056598;28;20024;-62
2023/08/05 05:31:31;;;;;;;7.05;3.70;;;;;;;16.35;100.00;100128.97;5067815;28;20058;-61
2023/08/05 05:33:56;;;;;;;7.90;4.10;;;;;;;16.43;100.00;100118.69;5064098;28;20495;-62
2023/08/05 05:36:22;;;;;;;9.45;4.10;;;;;;;16.50;100.00;100117.44;5060837;28;20024;-62
2023/08/05 05:38:47;;;;;;;8.57;4.65;;;;;;;16.54;100.00;100105.59;5068317;28;20048;-62
2023/08/05 05:41:13;;;;;;;8.70;4.30;;;;;;;16.63;100.00;100110.44;5063485;28;20036;-61
2023/08/05 05:43:38;;;;;;;10.77;4.72;;;;;;;16.77;100.00;100107.88;5063228;28;20040;-62
2023/08/05 05:46:04;;;;;;;8.45;4.75;;;;;;;16.85;100.00;100103.75;5065451;28;20765;-61
2023/08/05 05:48:30;;;;;;;9.07;4.57;;;;;;;16.94;100.00;100091.63;5071498;28;20037;-62
2023/08/05 05:50:55;;;;;;;8.18;4.40;;;;;;;17.11;100.00;100094.22;5062630;28;20043;-62
2023/08/05 05:53:21;;;;;;;9.57;4.03;;;;;;;17.29;100.00;100095.84;5059553;28;20028;-61
2023/08/05 05:55:50;;;;;;;7.65;3.88;;;;;;;17.36;100.00;100094.53;5067981;28;20020;-62
2023/08/05 05:58:15;;;;;;;7.72;3.67;;;;;;;17.43;100.00;100090.50;5063759;28;20035;-61
2023/08/05 06:00:41;;;;;;;11.52;3.92;;;;;;;17.42;100.00;100087.91;5061727;28;20020;-62
2023/08/05 06:03:06;;;;;;;10.82;4.90;;;;;;;17.49;100.00;100086.63;5051960;28;20025;-62
2023/08/05 06:05:32;;;;;;;6.82;3.90;;;;;;;17.53;100.00;100091.72;5059988;28;20556;-62
2023/08/05 06:07:57;;;;;;;6.65;3.55;;;;;;;17.44;100.00;100089.56;5073068;28;20480;-60
2023/08/05 06:10:23;;;;;;;8.15;4.13;;;;;;;17.60;100.00;100095.78;5082193;28;20034;-60
2023/08/05 06:12:49;;;;;;;9.00;3.80;;;;;;;17.66;100.00;100090.03;5086627;28;20027;-60
2023/08/05 06:15:14;;;;;;;8.68;4.07;;;;;;;17.78;100.00;100091.13;5084196;28;20436;-60
2023/08/05 06:17:40;;;;;;;7.28;4.40;;;;;;;17.86;100.00;100095.06;5071211;28;20032;-61
2023/08/05 06:20:07;;;;;;;8.02;4.35;;;;;;;17.97;100.00;100087.19;5081587;28;20076;-60
2023/08/05 06:22:32;;;;;;;7.80;3.78;;;;;;;18.05;100.00;100087.63;5085381;28;20487;-60
2023/08/05 06:24:57;;;;;;;8.57;4.00;;;;;;;18.09;100.00;100091.84;5084887;28;20036;-60
2023/08/05 06:27:23;;;;;;;7.35;3.70;;;;;;;18.12;100.00;100094.31;5085826;28;20107;-60
2023/08/05 06:29:48;;;;;;;8.95;4.18;;;;;;;18.23;100.00;100081.09;5069386;28;20504;-60
2023/08/05 06:32:14;;;;;;;8.18;4.32;;;;;;;18.30;100.00;100093.19;5072046;28;20028;-60
2023/08/05 06:34:39;;;;;;;7.75;3.60;;;;;;;18.31;100.00;100094.94;5073967;28;20617;-60
2023/08/05 06:37:05;;;;;;;7.00;4.30;;;;;;;18.42;100.00;100096.13;5066742;28;20028;-60
2023/08/05 06:39:32;;;;;;;8.02;3.58;;;;;;;18.32;100.00;100090.38;5069804;28;20024;-59
2023/08/05 06:41:58;;;;;;;6.65;3.83;;;;;;;18.31;100.00;100089.53;5087192;28;20498;-60
2023/08/05 06:44:24;;;;;;;7.93;3.65;;;;;;;18.26;100.00;100090.78;5074195;28;20024;-60
2023/08/05 06:46:49;;;;;;;11.95;3.95;;;;;;;18.13;100.00;100093.38;5080284;28;20555;-60
2023/08/05 06:49:14;;;;;;;7.15;4.00;;;;;;;18.17;100.00;100092.22;5086401;28;20147;-60
2023/08/05 06:51:40;;;;;;;8.48;4.60;;;;;;;18.25;100.00;100089.91;5084821;28;20038;-60
2023/08/05 06:54:05;;;;;;;8.60;4.85;;;;;;;18.25;100.00;100079.13;5084022;28;20377;-60
2023/08/05 06:56:31;;;;;;;9.57;4.65;;;;;;;18.40;100.00;100081.88;5086057;28;20073;-60
2023/08/05 06:58:56;;;;;;;7.43;4.22;;;;;;;18.48;100.00;100082.25;5080941;28;20031;-60
2023/08/05 07:01:21;;;;;;;7.28;4.57;;;;;;;18.56;100.00;100078.09;5090295;28;20590;-60
2023/08/05 07:03:49;;;;;;;7.43;4.22;;;;;;;18.78;100.00;100082.97;5087323;28;20039;-60
2023/08/05 07:06:14;;;;;;;8.90;4.43;;;;;;;18.93;100.00;100082.00;5090554;28;20055;-60
2023/08/05 07:08:39;;;;;;;8.35;4.07;;;;;;;18.92;100.00;100086.50;5088853;28;20027;-60
2023/08/05 07:11:05;;;;;;;10.93;4.75;;;;;;;18.94;100.00;100079.19;5076183;28;20032;-60
2023/08/05 07:13:30;;;;;;;6.82;4.78;;;;;;;19.00;100.00;100083.28;5089617;28;20081;-60
2023/08/05 07:16:03;;;;;;;7.80;4.25;;;;;;;19.01;100.00;100083.19;5084561;28;20024;-60
2023/08/05 07:18:31;;;;;;;9.50;4.40;;;;;;;19.12;100.00;100077.09;5086751;28;20028;-60
2023/08/05 07:20:57;;;;;;;8.73;4.57;;;;;;;19.01;100.00;100068.88;5089452;28;20020;-60
2023/08/05 07:23:23;;;;;;;7.70;3.92;;;;;;;19.01;100.00;100087.75;5088887;28;20024;-60
2023/08/05 07:25:48;;;;;;;8.75;4.13;;;;;;;19.00;100.00;100088.69;5079089;28;20428;-60
2023/08/05 07:28:13;;;;;;;8.00;4.53;;;;;;;19.00;100.00;100083.28;5087532;28;20032;-60
2023/08/05 07:30:39;;;;;;;7.85;4.95;;;;;;;19.07;100.00;100084.63;5086668;28;20506;-60
2023/08/05 07:33:08;;;;;;;8.63;5.32;;;;;;;19.28;100.00;100083.19;5084218;28;20036;-60
2023/08/05 07:35:33;;;;;;;7.78;4.40;;;;;;;19.51;100.00;100082.53;5089134;28;20031;-60
2023/08/05 07:38:03;;;;;;;7.32;4.97;;;;;;;19.70;100.00;100085.72;5079342;28;20039;-60
2023/08/05 07:40:30;;;;;;;9.32;4.53;;;;;;;19.79;99.66;100085.06;5088314;28;20036;-60
2023/08/05 07:42:56;;;;;;;9.30;4.25;;;;;;;19.91;97.95;100078.84;5088202;28;20031;-60
2023/08/05 07:45:21;;;;;;;7.95;4.55;;;;;;;20.56;97.02;100066.09;5080800;28;20038;-60
2023/08/05 07:47:47;;;;;;;7.15;4.78;;;;;;;21.35;93.25;100052.94;5087344;28;20085;-60
2023/08/05 07:50:21;;;;;;;5.57;4.18;;;;;;;21.59;83.95;100049.22;5079575;28;20028;-60
2023/08/05 07:52:47;;;;;;;9.35;3.70;;;;;;;21.42;82.58;100046.06;5087046;28;20031;-60
2023/08/05 07:55:12;;;;;;;10.30;4.60;;;;;;;21.18;84.61;100042.53;5089850;28;20392;-60
2023/08/05 07:57:40;;;;;;;7.22;4.32;;;;;;;21.09;86.59;100043.22;5079566;28;20097;-60
2023/08/05 08:00:08;;;;;;;10.02;4.40;;;;;;;21.09;87.28;100043.22;5077608;28;20098;-60
2023/08/05 08:02:34;;;;;;;5.55;3.38;;;;;;;21.24;87.44;100044.75;5086393;28;20126;-60
2023/08/05 08:05:04;;;;;;;6.93;3.85;;;;;;;22.00;86.79;100044.16;5083098;28;20028;-60
2023/08/05 08:07:29;;;;;;;6.78;3.88;;;;;;;22.86;83.64;100048.00;5069156;28;20048;-60
2023/08/05 08:09:55;;;;;;;5.65;4.00;;;;;;;23.21;75.73;100039.63;5068585;28;20020;-60
2023/08/05 08:12:20;;;;;;;5.78;4.05;;;;;;;23.28;73.34;100039.00;5077875;28;20119;-60
2023/08/05 08:14:46;;;;;;;7.63;3.72;;;;;;;23.19;72.48;100037.06;5071609;28;20028;-60
2023/08/05 08:17:11;;;;;;;7.50;4.43;;;;;;;23.10;74.66;100043.25;5050239;28;20058;-60
2023/08/05 08:19:36;;;;;;;6.82;3.90;;;;;;;23.28;75.00;100038.13;5082535;28;20043;-60
2023/08/05 08:22:02;;;;;;;6.00;3.83;;;;;;;23.74;72.30;100041.38;5067754;28;20028;-61
2023/08/05 08:24:28;;;;;;;5.20;3.33;;;;;;;24.09;69.94;100038.34;5068014;28;20044;-60
2023/08/05 08:26:53;;;;;;;5.10;3.10;;;;;;;23.79;69.24;100041.00;5071153;28;20111;-61
2023/08/05 08:29:19;;;;;;;5.93;3.58;;;;;;;23.78;72.46;100036.53;5088174;28;20024;-60
2023/08/05 08:31:44;;;;;;;5.43;3.40;;;;;;;23.40;70.88;100024.41;5076668;28;20036;-61
2023/08/05 08:34:10;;;;;;;6.93;3.33;;;;;;;23.13;73.33;100023.97;5068160;28;20372;-61
2023/08/05 08:36:35;;;;;;;6.53;3.47;;;;;;;22.91;74.46;100024.06;5072048;28;20582;-60
2023/08/05 08:39:00;;;;;;;5.75;3.28;;;;;;;22.80;76.78;100024.06;5068092;28;20023;-60
2023/08/05 08:41:26;;;;;;;5.75;3.53;;;;;;;22.79;75.90;100018.78;5068142;28;20038;-61
2023/08/05 08:43:54;;;;;;;5.45;3.38;;;;;;;23.29;75.61;100018.16;5071475;28;20036;-61
2023/08/05 08:46:20;;;;;;;5.25;3.20;;;;;;;23.93;70.91;100008.03;5072352;28;20035;-61
2023/08/05 08:48:48;;;;;;;6.93;3.20;;;;;;;24.54;64.77;100007.94;5075996;28;20048;-60
2023/08/05 08:51:15;;;;;;;5.50;3.22;;;;;;;25.21;67.15;100005.38;5066939;28;20540;-61
2023/08/05 08:53:42;;;;;;;5.75;3.20;;;;;;;25.82;63.60;100004.06;5078876;28;20024;-61
2023/08/05 08:56:08;;;;;;;5.65;3.08;;;;;;;26.11;60.94;100005.91;5083649;28;20045;-61
2023/08/05 08:58:34;;;;;;;5.82;3.10;;;;;;;26.76;58.82;100012.09;5066840;28;20017;-61
2023/08/05 09:01:02;;;;;;;5.55;2.55;;;;;;;26.96;58.14;100010.09;5067316;28;20066;-61
2023/08/05 09:03:31;;;;;;;4.45;2.67;;;;;;;26.53;58.15;100015.34;5079573;28;20028;-61
2023/08/05 09:05:56;;;;;;;5.65;3.45;;;;;;;26.71;59.81;100013.56;5085714;28;20035;-60
2023/08/05 09:08:22;;;;;;;5.60;2.58;;;;;;;27.00;56.40;100004.16;5086491;28;20020;-61
2023/08/05 09:10:47;;;;;;;5.47;2.55;;;;;;;26.80;56.37;100001.72;5065524;28;20047;-61
2023/08/05 09:13:17;;;;;;;5.18;2.60;;;;;;;26.98;58.40;100008.94;5046608;28;20029;-61
2023/08/05 09:15:42;;;;;;;4.25;2.60;;;;;;;26.87;57.31;100008.31;5046595;28;20423;-61
2023/08/05 09:18:08;;;;;;;5.10;2.45;;;;;;;26.75;56.84;100004.06;5056041;28;20028;-61
2023/08/05 09:20:35;;;;;;;4.13;2.50;;;;;;;26.43;56.82;99989.97;5053705;28;20025;-61
2023/08/05 09:23:03;;;;;;;4.00;2.55;;;;;;;26.12;58.33;99988.50;5046682;28;20033;-61
2023/08/05 09:25:30;;;;;;;7.07;2.40;;;;;;;25.88;59.64;99992.56;5057427;28;20051;-60
2023/08/05 09:27:56;;;;;;;4.47;2.55;;;;;;;25.45;61.57;99996.81;5067186;28;20029;-61
2023/08/05 09:30:23;;;;;;;4.95;2.72;;;;;;;24.88;64.91;99994.00;5065475;28;20451;-61
2023/08/05 09:32:50;;;;;;;4.13;2.50;;;;;;;24.59;66.76;99988.47;5064999;28;20036;-61
2023/08/05 09:35:16;;;;;;;6.38;3.00;;;;;;;24.91;67.72;99994.59;5066914;28;20032;-61
2023/08/05 09:37:51;;;;;;;5.40;2.50;;;;;;;25.69;64.63;99987.16;5062492;28;20059;-61
2023/08/05 09:40:21;;;;;;;4.70;2.40;;;;;;;26.22;61.76;99972.97;5062698;28;20052;-61
2023/08/05 09:42:54;;;;;;;3.95;2.30;;;;;;;26.15;62.20;99967.25;5067342;28;20025;-61
2023/08/05 09:45:22;;;;;;;5.43;2.58;;;;;;;26.08;61.54;99965.31;5067706;28;20060;-60
2023/08/05 09:47:50;;;;;;;6.07;2.40;;;;;;;25.99;63.45;99958.84;5066076;28;20178;-61
2023/08/05 09:50:18;;;;;;;5.78;2.42;;;;;;;26.48;62.02;99963.94;5049887;28;20028;-61
2023/08/05 09:52:45;;;;;;;4.65;2.30;;;;;;;26.44;59.73;99961.69;5081807;28;20028;-61
2023/08/05 09:55:16;;;;;;;4.20;2.30;;;;;;;26.24;59.99;99955.47;5076678;28;20020;-61
2023/08/05 09:57:42;;;;;;;3.85;2.33;;;;;;;26.00;62.87;99956.97;5065574;28;20070;-61
2023/08/05 10:00:11;;;;;;;4.03;1.98;;;;;;;26.11;61.13;99948.63;5048212;28;20068;-61
2023/08/05 10:02:37;;;;;;;4.07;2.30;;;;;;;26.35;56.63;99943.50;5049351;28;20033;-61
2023/08/05 10:05:03;;;;;;;5.57;2.10;;;;;;;27.10;55.30;99944.88;5049305;28;20029;-61
2023/08/05 10:07:29;;;;;;;3.65;1.98;;;;;;;27.28;56.06;99946.78;5064246;28;20449;-61
2023/08/05 10:09:55;;;;;;;3.83;1.90;;;;;;;27.65;52.88;99933.75;5080060;28;20426;-61
2023/08/05 10:12:48;;;;;;;3.90;2.08;;;;;;;27.49;52.47;99929.03;5086021;28;20055;-61
2023/08/05 10:15:21;;;;;;;4.18;2.17;;;;;;;27.42;53.53;99930.69;5071519;28;20032;-61
2023/08/05 10:17:48;;;;;;;;;;;;;;;27.70;54.69;99940.47;5073294;28;20494;-61
2023/08/05 10:20:13;;;;;;;4.60;2.13;;;;;;;27.68;53.83;99926.09;5080024;28;19916;-61
2023/08/05 10:22:39;;;;;;;4.47;2.22;;;;;;;27.31;54.00;99921.88;5066946;28;20436;-61
2023/08/05 10:25:06;;;;;;;4.05;1.77;;;;;;;27.34;55.64;99916.97;5066900;28;20158;-61
2023/08/05 10:27:36;;;;;;;3.75;2.10;;;;;;;27.51;55.06;99902.41;5070103;28;20048;-61
2023/08/05 10:30:07;;;;;;;4.72;2.10;;;;;;;27.25;54.58;99909.66;5078270;28;20496;-61
2023/08/05 10:32:34;;;;;;;3.45;1.88;;;;;;;26.85;56.90;99909.31;5087229;28;20080;-61
2023/08/05 10:35:27;;;;;;;4.32;2.17;;;;;;;27.13;56.63;99905.50;5087716;28;20116;-61
2023/08/05 10:38:22;;;;;;;5.53;2.00;;;;;;;27.17;55.40;99899.53;5075639;28;20060;-61
2023/08/05 10:40:55;;;;;;;3.45;2.00;;;;;;;27.20;53.06;99892.91;5080000;28;20399;-61
2023/08/05 10:43:33;;;;;;;3.28;1.80;;;;;;;27.64;52.58;99888.31;5070140;28;20051;-62
2023/08/05 10:45:58;;;;;;;8.25;2.80;;;;;;;28.10;52.33;99885.19;5067359;28;20028;-61
2023/08/05 10:48:36;;;;;;;3.88;1.55;;;;;;;28.26;47.93;99886.09;5080099;28;20030;-61
2023/08/05 10:51:12;;;;;;;3.47;1.60;;;;;;;28.27;48.19;99882.34;5087615;28;20016;-61
2023/08/05 10:53:38;;;;;;;3.08;1.48;;;;;;;28.71;48.35;99873.94;5079035;28;20039;-62
2023/08/05 10:56:11;;;;;;;3.70;1.73;;;;;;;28.97;47.86;99866.44;5079301;28;20857;-62
2023/08/05 10:58:44;;;;;;;3.28;1.65;;;;;;;29.38;45.48;99868.19;5071111;28;20027;-62
2023/08/05 11:01:10;;;;;;;2.42;1.33;;;;;;;29.72;44.78;99877.06;5083726;28;20111;-61
2023/08/05 11:03:45;;;;;;;2.72;1.58;;;;;;;30.05;46.64;99870.44;5066611;28;20586;-61
2023/08/05 11:06:12;;;;;;;1.90;1.15;;;;;;;29.81;42.16;99867.78;5075172;28;20063;-61
2023/08/05 11:08:39;;;;;;;2.30;1.50;;;;;;;29.22;42.55;99869.06;5085180;28;20114;-61
2023/08/05 11:11:06;;;;;;;3.72;1.73;;;;;;;29.18;43.85;99873.16;5069448;28;20077;-61
2023/08/05 11:13:33;;;;;;;2.78;1.52;;;;;;;29.10;45.09;99864.94;5067932;28;20041;-61
2023/08/05 11:16:10;;;;;;;699.20;106.53;;;;;;;29.41;44.81;99870.56;5069531;28;20392;-61
2023/08/05 11:18:37;;;;;;;102.32;29.85;;;;;;;29.55;43.96;99870.75;5080077;28;20066;-61